createdAt,value
2023-01-11T00:00:45.808Z,101.72
2023-01-11T00:03:14.160Z,105.07
2023-01-11T00:05:44.781Z,106.72
2023-01-11T00:08:13.108Z,102.68
2023-01-11T00:10:41.272Z,107.28
2023-01-11T00:13:09.352Z,108.35
2023-01-11T00:15:38.195Z,114.13
2023-01-11T00:18:06.461Z,113.28
2023-01-11T00:20:34.641Z,119.00
2023-01-11T00:23:04.012Z,118.47
2023-01-11T00:25:32.094Z,119.40
2023-01-11T00:28:00.103Z,123.90
2023-01-11T00:30:28.105Z,129.10
2023-01-11T00:32:57.797Z,115.00
2023-01-11T00:35:26.174Z,120.00
2023-01-11T00:37:54.725Z,121.43
2023-01-11T00:40:26.331Z,121.53
2023-01-11T00:43:12.197Z,126.65
2023-01-11T00:45:58.613Z,123.18
2023-01-11T00:48:26.737Z,117.10
2023-01-11T00:50:58.022Z,119.10
2023-01-11T00:53:26.091Z,120.53
2023-01-11T00:55:55.520Z,120.82
2023-01-11T00:58:23.474Z,118.28
2023-01-11T01:00:51.476Z,119.72
2023-01-11T01:03:19.593Z,126.70
2023-01-11T01:05:47.566Z,124.05
2023-01-11T01:08:15.560Z,125.00
2023-01-11T01:10:43.576Z,129.95
2023-01-11T01:13:31.072Z,126.32
2023-01-11T01:15:59.695Z,125.72
2023-01-11T01:18:27.686Z,126.43
2023-01-11T01:20:55.717Z,126.65
2023-01-11T01:23:23.666Z,127.55
2023-01-11T01:25:51.677Z,123.63
2023-01-11T01:28:22.219Z,120.82
2023-01-11T01:30:52.233Z,128.82
2023-01-11T01:33:20.467Z,129.57
2023-01-11T01:35:48.623Z,131.88
2023-01-11T01:38:16.764Z,134.95
2023-01-11T01:40:46.273Z,139.40
2023-01-11T01:43:17.275Z,137.40
2023-01-11T01:45:50.022Z,135.73
2023-01-11T01:48:23.053Z,141.95
2023-01-11T01:50:54.645Z,137.95
2023-01-11T01:53:27.818Z,134.18
2023-01-11T01:55:59.679Z,136.57
2023-01-11T01:58:32.386Z,138.23
2023-01-11T02:01:22.949Z,139.35
2023-01-11T02:03:52.968Z,141.93
2023-01-11T02:06:23.898Z,133.57
2023-01-11T02:08:59.364Z,137.32
2023-01-11T02:11:31.057Z,131.63
2023-01-11T02:14:01.961Z,130.35
2023-01-11T02:16:31.461Z,129.70
2023-01-11T02:19:00.744Z,131.82
2023-01-11T02:21:41.689Z,131.60
2023-01-11T02:24:32.769Z,137.45
2023-01-11T02:27:17.912Z,127.93
2023-01-11T02:29:58.100Z,124.30
2023-01-11T02:32:35.225Z,118.50
2023-01-11T02:35:14.540Z,132.27
2023-01-11T02:37:55.181Z,121.95
2023-01-11T02:40:29.023Z,132.23
2023-01-11T02:43:21.123Z,128.70
2023-01-11T02:45:57.175Z,121.85
2023-01-11T02:48:31.407Z,121.85
2023-01-11T02:51:05.260Z,124.75
2023-01-11T02:53:38.005Z,124.38
2023-01-11T02:56:10.839Z,125.10
2023-01-11T02:58:43.229Z,119.97
2023-01-11T03:01:13.799Z,128.30
2023-01-11T03:03:41.955Z,112.72
2023-01-11T03:06:17.514Z,114.00
2023-01-11T03:09:12.948Z,109.30
2023-01-11T03:12:12.017Z,117.90
2023-01-11T03:14:50.493Z,109.63
2023-01-11T03:17:34.501Z,109.82
2023-01-11T03:20:10.609Z,113.45
2023-01-11T03:22:47.273Z,107.57
2023-01-11T03:25:21.474Z,105.88
2023-01-11T03:27:54.583Z,100.15
2023-01-11T03:30:27.914Z,103.93
2023-01-11T03:33:04.829Z,104.35
2023-01-11T03:35:40.852Z,98.22
2023-01-11T03:38:13.301Z,99.65
2023-01-11T03:40:46.480Z,93.47
2023-01-11T03:43:15.780Z,87.40
2023-01-11T03:45:49.067Z,89.63
2023-01-11T03:48:21.429Z,89.70
2023-01-11T03:50:53.326Z,95.35
2023-01-11T03:53:23.656Z,92.03
2023-01-11T03:55:55.701Z,88.28
2023-01-11T03:58:23.940Z,88.70
2023-01-11T04:00:52.479Z,94.03
2023-01-11T04:03:21.992Z,76.18
2023-01-11T04:05:53.679Z,83.43
2023-01-11T04:08:21.646Z,80.55
2023-01-11T04:10:49.618Z,79.72
2023-01-11T04:13:17.694Z,78.82
2023-01-11T04:15:45.878Z,74.07
2023-01-11T04:18:13.949Z,69.60
2023-01-11T04:20:43.331Z,66.93
2023-01-11T04:23:11.334Z,53.20
2023-01-11T04:25:39.573Z,47.60
2023-01-11T04:28:07.563Z,47.95
2023-01-11T04:30:36.040Z,40.97
2023-01-11T04:33:04.199Z,41.35
2023-01-11T04:35:32.287Z,44.38
2023-01-11T04:38:01.645Z,46.10
2023-01-11T04:40:29.646Z,42.88
2023-01-11T04:42:56.751Z,37.13
2023-01-11T04:45:24.747Z,34.03
2023-01-11T04:47:56.383Z,35.47
2023-01-11T04:50:25.152Z,33.30
2023-01-11T04:52:53.611Z,35.05
2023-01-11T04:55:23.448Z,34.78
2023-01-11T04:57:51.530Z,31.88
2023-01-11T05:00:20.192Z,26.95
2023-01-11T05:02:48.134Z,28.27
2023-01-11T05:05:16.176Z,30.52
2023-01-11T05:07:44.160Z,32.05
2023-01-11T05:10:12.801Z,26.45
2023-01-11T05:12:42.173Z,29.90
2023-01-11T05:15:11.097Z,25.85
2023-01-11T05:17:39.063Z,23.25
2023-01-11T05:20:08.275Z,29.63
2023-01-11T05:22:36.284Z,25.95
2023-01-11T05:25:04.504Z,32.63
2023-01-11T05:27:34.047Z,24.65
2023-01-11T05:30:03.557Z,21.30
2023-01-11T05:32:31.691Z,20.65
2023-01-11T05:34:59.753Z,22.85
2023-01-11T05:37:27.838Z,20.63
2023-01-11T05:39:55.875Z,33.08
2023-01-11T05:42:23.864Z,26.52
2023-01-11T05:45:09.086Z,30.83
2023-01-11T05:47:38.514Z,24.08
2023-01-11T05:50:07.256Z,24.42
2023-01-11T05:52:35.222Z,28.48
2023-01-11T05:55:03.333Z,24.70
2023-01-11T05:57:31.306Z,27.85
2023-01-11T05:59:59.257Z,23.45
2023-01-11T06:02:27.412Z,30.65
2023-01-11T06:04:56.928Z,28.38
2023-01-11T06:07:25.576Z,28.88
2023-01-11T06:09:53.788Z,25.48
2023-01-11T06:12:21.832Z,27.67
2023-01-11T06:14:49.886Z,27.55
2023-01-11T06:17:17.884Z,24.73
2023-01-11T06:19:45.919Z,27.48
2023-01-11T06:22:15.359Z,29.60
2023-01-11T06:24:43.433Z,20.40
2023-01-11T06:27:11.482Z,24.75
2023-01-11T06:29:39.533Z,31.77
2023-01-11T06:32:08.743Z,26.25
2023-01-11T06:34:36.762Z,22.63
2023-01-11T06:37:04.805Z,27.30
2023-01-11T06:39:34.245Z,27.70
2023-01-11T06:42:02.265Z,23.85
2023-01-11T06:44:30.378Z,25.13
2023-01-11T06:46:58.960Z,33.42
2023-01-11T06:49:27.166Z,29.98
2023-01-11T06:51:55.197Z,26.48
2023-01-11T06:54:25.615Z,31.67
2023-01-11T06:56:55.006Z,26.60
2023-01-11T06:59:22.993Z,25.65
2023-01-11T07:01:51.149Z,34.47
2023-01-11T07:04:19.852Z,36.53
2023-01-11T07:06:47.906Z,30.50
2023-01-11T07:09:15.906Z,25.58
2023-01-11T07:11:43.959Z,28.20
2023-01-11T07:14:15.353Z,31.70
2023-01-11T07:16:43.366Z,28.40
2023-01-11T07:19:12.913Z,27.05
2023-01-11T07:21:40.954Z,26.25
2023-01-11T07:24:09.007Z,34.42
2023-01-11T07:26:41.199Z,31.98
2023-01-11T07:29:09.849Z,34.80
2023-01-11T07:31:39.470Z,31.30
2023-01-11T07:34:07.569Z,30.85
2023-01-11T07:36:39.453Z,30.80
2023-01-11T07:39:08.333Z,30.92
2023-01-11T07:41:53.715Z,32.40
2023-01-11T07:44:21.871Z,36.60
2023-01-11T07:46:51.424Z,33.13
2023-01-11T07:49:19.411Z,28.00
2023-01-11T07:51:47.396Z,33.90
2023-01-11T07:54:15.445Z,36.63
2023-01-11T07:56:43.414Z,34.53
2023-01-11T07:59:11.605Z,25.80
2023-01-11T08:01:39.601Z,35.25
2023-01-11T08:04:12.060Z,40.75
2023-01-11T08:06:40.356Z,34.17
2023-01-11T08:09:08.526Z,35.65
2023-01-11T08:11:54.469Z,42.13
2023-01-11T08:14:40.999Z,45.10
2023-01-11T08:17:09.891Z,36.08
2023-01-11T08:19:39.575Z,31.65
2023-01-11T08:22:07.992Z,36.95
2023-01-11T08:24:35.968Z,33.72
2023-01-11T08:27:04.239Z,38.72
2023-01-11T08:29:32.835Z,31.30
2023-01-11T08:32:00.846Z,28.05
2023-01-11T08:34:29.234Z,32.08
2023-01-11T08:37:01.879Z,34.05
2023-01-11T08:39:31.000Z,31.75
2023-01-11T08:41:59.182Z,32.28
2023-01-11T08:44:35.040Z,31.85
2023-01-11T08:47:03.408Z,34.92
2023-01-11T08:49:31.601Z,32.25
2023-01-11T08:52:00.944Z,35.45
2023-01-11T08:54:29.064Z,36.15
2023-01-11T08:56:57.122Z,26.45
2023-01-11T08:59:25.179Z,30.20
2023-01-11T09:01:53.245Z,22.58
2023-01-11T09:04:25.130Z,25.05
2023-01-11T09:06:53.990Z,27.50
2023-01-11T09:09:23.428Z,27.88
2023-01-11T09:11:58.839Z,27.95
2023-01-11T09:14:28.217Z,29.08
2023-01-11T09:16:57.293Z,30.50
2023-01-11T09:19:25.799Z,28.80
2023-01-11T09:21:56.693Z,22.42
2023-01-11T09:24:26.229Z,27.90
2023-01-11T09:26:54.406Z,28.45
2023-01-11T09:29:22.461Z,21.05
2023-01-11T09:31:50.569Z,24.13
2023-01-11T09:34:19.276Z,25.60
2023-01-11T09:36:48.786Z,28.13
2023-01-11T09:39:19.576Z,27.73
2023-01-11T09:42:13.129Z,28.95
2023-01-11T09:44:51.159Z,26.10
2023-01-11T09:47:28.208Z,33.10
2023-01-11T09:49:59.028Z,24.25
2023-01-11T09:52:32.946Z,27.13
2023-01-11T09:55:02.477Z,24.23
2023-01-11T09:57:45.361Z,24.70
2023-01-11T10:00:22.414Z,25.05
2023-01-11T10:03:11.070Z,28.80
2023-01-11T10:05:55.841Z,35.63
2023-01-11T10:18:28.381Z,29.92
2023-01-11T10:18:29.555Z,36.88
2023-01-11T10:20:46.549Z,28.23
2023-01-11T10:23:21.540Z,32.25
2023-01-11T10:25:54.381Z,24.77
2023-01-11T10:28:31.266Z,28.42
2023-01-11T10:31:28.768Z,29.15
2023-01-11T10:34:18.537Z,28.25
2023-01-11T10:37:10.930Z,32.30
2023-01-11T10:40:06.273Z,22.02
2023-01-11T10:42:44.175Z,25.33
2023-01-11T10:45:18.947Z,23.90
2023-01-11T10:47:56.485Z,22.92
2023-01-11T10:50:31.200Z,23.10
2023-01-11T10:53:07.592Z,22.48
2023-01-11T10:55:45.092Z,24.27
2023-01-11T10:58:24.719Z,25.23
2023-01-11T11:01:08.453Z,25.25
2023-01-11T11:03:53.215Z,21.63
2023-01-11T11:06:29.160Z,25.58
2023-01-11T11:09:03.767Z,25.00
2023-01-11T11:11:36.263Z,23.73
2023-01-11T11:14:13.818Z,28.83
2023-01-11T11:16:52.739Z,23.52
2023-01-11T11:19:26.358Z,30.92
2023-01-11T11:21:54.606Z,21.88
2023-01-11T11:24:27.609Z,26.92
2023-01-11T11:27:00.340Z,24.83
2023-01-11T11:29:30.802Z,27.10
2023-01-11T11:32:00.635Z,23.25
2023-01-11T11:34:31.089Z,22.73
2023-01-11T11:37:01.601Z,23.60
2023-01-11T11:39:31.755Z,18.55
2023-01-11T11:42:07.109Z,19.88
2023-01-11T11:44:35.485Z,25.77
2023-01-11T11:47:05.572Z,22.30
2023-01-11T11:49:36.246Z,19.98
2023-01-11T11:52:06.631Z,21.45
2023-01-11T11:54:38.029Z,25.90
2023-01-11T11:57:16.639Z,22.38
2023-01-11T11:59:47.509Z,23.60
2023-01-11T12:02:26.122Z,25.25
2023-01-11T12:04:57.691Z,24.30
2023-01-11T12:07:28.844Z,20.23
2023-01-11T12:10:01.154Z,18.95
2023-01-11T12:15:21.269Z,23.77
2023-01-11T12:17:49.948Z,21.90
2023-01-11T12:20:41.208Z,23.83
2023-01-11T12:23:17.409Z,20.35
2023-01-11T12:26:15.753Z,23.60
2023-01-11T12:29:01.305Z,23.25
2023-01-11T12:31:37.142Z,24.30
2023-01-11T12:34:18.007Z,18.80
2023-01-11T12:36:57.415Z,24.00
2023-01-11T12:39:40.238Z,20.25
2023-01-11T12:42:28.488Z,26.58
2023-01-11T12:45:11.943Z,24.25
2023-01-11T12:48:05.680Z,21.15
2023-01-11T12:53:28.540Z,25.17
2023-01-11T12:56:16.559Z,23.65
2023-01-11T12:58:49.962Z,23.17
2023-01-11T13:01:29.171Z,20.02
2023-01-11T13:04:39.086Z,21.92
2023-01-11T13:07:15.463Z,21.30
2023-01-11T13:09:57.458Z,21.85
2023-01-11T13:12:32.244Z,16.23
2023-01-11T13:15:17.774Z,22.80
2023-01-11T13:17:53.197Z,25.88
2023-01-11T13:20:30.912Z,20.52
2023-01-11T13:23:05.809Z,22.83
2023-01-11T13:25:39.803Z,20.67
2023-01-11T13:28:30.396Z,20.30
2023-01-11T13:30:59.857Z,18.55
2023-01-11T13:33:31.581Z,22.85
2023-01-11T13:36:09.740Z,20.23
2023-01-11T13:38:48.390Z,18.67
2023-01-11T13:41:21.400Z,22.55
2023-01-11T13:43:56.458Z,23.88
2023-01-11T13:46:45.082Z,23.75
2023-01-11T13:49:22.429Z,21.23
2023-01-11T13:51:55.420Z,29.08
2023-01-11T13:54:32.653Z,21.10
2023-01-11T13:57:06.115Z,24.42
2023-01-11T13:59:39.182Z,24.98
2023-01-11T14:02:18.502Z,20.40
2023-01-11T14:04:54.079Z,22.30
2023-01-11T14:07:36.481Z,19.58
2023-01-11T14:12:58.610Z,19.02
2023-01-11T14:15:32.392Z,23.58
2023-01-11T14:18:14.215Z,19.50
2023-01-11T14:20:48.357Z,26.38
2023-01-11T14:23:19.110Z,19.98
2023-01-11T14:26:05.724Z,22.60
2023-01-11T14:28:47.801Z,23.55
2023-01-11T14:31:36.312Z,25.30
2023-01-11T14:34:28.818Z,22.33
2023-01-11T14:37:23.535Z,25.20
2023-01-11T14:40:09.840Z,21.20
2023-01-11T14:43:11.556Z,24.08
2023-01-11T14:45:59.415Z,28.95
2023-01-11T14:48:34.369Z,28.23
2023-01-11T14:51:33.194Z,19.02
2023-01-11T14:54:07.523Z,26.25
2023-01-11T14:56:37.942Z,26.90
2023-01-11T14:59:07.759Z,25.80
2023-01-11T15:02:23.552Z,29.83
2023-01-11T15:05:45.489Z,27.33
2023-01-11T15:08:24.475Z,24.80
2023-01-11T15:10:57.796Z,29.40
2023-01-11T15:13:28.963Z,22.70
2023-01-11T15:16:26.939Z,27.92
2023-01-11T15:18:55.801Z,26.88
2023-01-11T15:21:28.135Z,32.55
2023-01-11T15:26:27.595Z,25.73
2023-01-11T15:28:58.067Z,24.83
2023-01-11T15:31:39.092Z,24.65
2023-01-11T15:34:23.003Z,31.40
2023-01-11T15:37:14.349Z,28.58
2023-01-11T15:39:51.097Z,33.60
2023-01-11T15:42:49.769Z,25.48
2023-01-11T15:45:59.511Z,29.10
2023-01-11T15:48:37.706Z,34.97
2023-01-11T15:51:35.257Z,34.63
2023-01-11T15:54:28.197Z,28.30
2023-01-11T15:57:27.793Z,26.50
2023-01-11T16:00:21.780Z,33.28
2023-01-11T16:03:16.833Z,37.05
2023-01-11T16:05:54.859Z,29.20
2023-01-11T16:08:31.583Z,34.58
2023-01-11T16:11:18.041Z,33.10
2023-01-11T16:13:59.101Z,25.98
2023-01-11T16:16:31.881Z,27.23
2023-01-11T16:19:06.975Z,30.70
2023-01-11T16:21:38.457Z,29.20
2023-01-11T16:24:09.099Z,24.97
2023-01-11T16:26:40.941Z,30.45
2023-01-11T16:29:14.186Z,26.65
2023-01-11T16:31:57.665Z,24.83
2023-01-11T16:34:26.089Z,30.05
2023-01-11T16:36:54.232Z,28.45
2023-01-11T16:39:25.550Z,26.30
2023-01-11T16:42:00.567Z,27.95
2023-01-11T16:44:36.305Z,28.63
2023-01-11T16:47:14.331Z,29.00
2023-01-11T16:49:48.680Z,31.75
2023-01-11T16:52:39.225Z,31.70
2023-01-11T16:55:23.868Z,32.15
2023-01-11T16:57:58.816Z,32.97
2023-01-11T17:00:35.503Z,27.88
2023-01-11T17:03:22.189Z,22.50
2023-01-11T17:06:14.559Z,27.17
2023-01-11T17:08:44.228Z,31.42
2023-01-11T17:11:27.168Z,31.90
2023-01-11T17:14:15.169Z,31.70
2023-01-11T17:16:46.425Z,28.25
2023-01-11T17:19:17.463Z,27.98
2023-01-11T17:21:50.668Z,25.77
2023-01-11T17:24:23.376Z,22.20
2023-01-11T17:26:54.755Z,22.42
2023-01-11T17:29:29.245Z,26.55
2023-01-11T17:31:59.447Z,23.95
2023-01-11T17:34:31.391Z,26.98
2023-01-11T17:37:01.386Z,27.90
2023-01-11T17:39:32.960Z,27.35
2023-01-11T17:42:20.175Z,19.60
2023-01-11T17:45:08.685Z,18.52
2023-01-11T17:47:39.487Z,22.02
2023-01-11T17:50:18.085Z,26.08
2023-01-11T17:52:54.543Z,25.92
2023-01-11T17:55:25.406Z,26.90
2023-01-11T17:58:20.856Z,26.75
2023-01-11T18:01:19.319Z,24.73
2023-01-11T18:03:51.045Z,32.10
2023-01-11T18:06:35.431Z,26.60
2023-01-11T18:09:05.887Z,26.42
2023-01-11T18:11:36.927Z,25.48
2023-01-11T18:14:08.355Z,25.17
2023-01-11T18:16:36.374Z,31.73
2023-01-11T18:19:24.368Z,26.95
2023-01-11T18:21:57.072Z,25.10
2023-01-11T18:24:43.473Z,29.23
2023-01-11T18:27:24.513Z,36.72
2023-01-11T18:29:53.504Z,24.23
2023-01-11T18:32:22.094Z,31.90
2023-01-11T18:34:54.668Z,30.08
2023-01-11T18:37:23.390Z,33.63
2023-01-11T18:39:52.555Z,30.92
2023-01-11T18:42:23.962Z,31.33
2023-01-11T18:44:51.966Z,25.50
2023-01-11T18:47:22.372Z,28.77
2023-01-11T18:49:53.058Z,30.48
2023-01-11T18:52:24.681Z,31.20
2023-01-11T18:54:52.788Z,30.17
2023-01-11T18:57:22.761Z,25.45
2023-01-11T18:59:52.226Z,30.33
2023-01-11T19:02:24.669Z,31.98
2023-01-11T19:07:25.301Z,31.17
2023-01-11T19:09:55.016Z,34.28
2023-01-11T19:12:23.464Z,28.52
2023-01-11T19:14:51.789Z,23.23
2023-01-11T19:17:20.012Z,25.85
2023-01-11T19:19:48.334Z,27.45
2023-01-11T19:22:17.860Z,25.55
2023-01-11T19:24:46.187Z,28.48
2023-01-11T19:27:14.463Z,26.73
2023-01-11T19:29:42.740Z,29.13
2023-01-11T19:32:11.016Z,29.83
2023-01-11T19:34:39.888Z,22.90
2023-01-11T19:37:08.383Z,25.77
2023-01-11T19:39:40.061Z,23.17
2023-01-11T19:42:08.154Z,27.85
2023-01-11T19:44:39.095Z,24.63
2023-01-11T19:47:11.891Z,28.77
2023-01-11T19:49:42.336Z,27.67
2023-01-11T19:52:13.993Z,27.98
2023-01-11T19:54:44.102Z,35.63
2023-01-11T19:57:14.458Z,30.35
2023-01-11T19:59:42.715Z,28.70
2023-01-11T20:02:12.841Z,30.88
2023-01-11T20:04:41.584Z,31.00
2023-01-11T20:07:11.292Z,33.05
2023-01-11T20:09:39.741Z,25.45
2023-01-11T20:12:11.397Z,27.88
2023-01-11T20:14:40.621Z,24.77
2023-01-11T20:17:09.344Z,28.77
2023-01-11T20:19:37.613Z,21.75
2023-01-11T20:22:05.938Z,24.63
2023-01-11T20:24:34.005Z,29.10
2023-01-11T20:27:03.358Z,27.83
2023-01-11T20:29:32.997Z,34.40
2023-01-11T20:32:24.730Z,32.13
2023-01-11T20:34:48.918Z,36.00
2023-01-11T20:37:17.118Z,41.45
2023-01-11T20:39:45.097Z,37.40
2023-01-11T20:42:13.165Z,36.53
2023-01-11T20:44:42.622Z,43.47
2023-01-11T20:47:10.899Z,38.97
2023-01-11T20:49:39.564Z,36.83
2023-01-11T20:52:07.577Z,35.72
2023-01-11T20:54:36.933Z,44.55
2023-01-11T20:57:12.132Z,50.40
2023-01-11T20:59:40.283Z,40.70
2023-01-11T21:02:13.514Z,40.75
2023-01-11T21:04:41.664Z,38.60
2023-01-11T21:07:09.635Z,43.30
2023-01-11T21:09:37.843Z,41.88
2023-01-11T21:12:09.362Z,48.50
2023-01-11T21:14:37.587Z,42.17
2023-01-11T21:17:05.654Z,35.60
2023-01-11T21:19:35.009Z,34.67
2023-01-11T21:22:03.057Z,38.28
2023-01-11T21:24:31.247Z,39.78
2023-01-11T21:26:59.304Z,42.50
2023-01-11T21:29:27.354Z,31.65
2023-01-11T21:31:55.506Z,40.30
2023-01-11T21:34:23.795Z,42.25
2023-01-11T21:36:53.185Z,33.28
2023-01-11T21:39:21.156Z,34.03
2023-01-11T21:41:58.811Z,35.63
2023-01-11T21:44:34.283Z,36.03
2023-01-11T21:47:03.003Z,34.72
2023-01-11T21:49:31.310Z,35.75
2023-01-11T21:52:01.090Z,36.83
2023-01-11T21:54:29.178Z,33.92
2023-01-11T21:56:57.310Z,25.77
2023-01-11T21:59:25.866Z,25.17
2023-01-11T22:01:53.818Z,31.05
2023-01-11T22:04:21.994Z,30.33
2023-01-11T22:06:54.642Z,38.10
2023-01-11T22:09:27.582Z,36.15
2023-01-11T22:11:55.919Z,32.03
2023-01-11T22:14:23.993Z,31.75
2023-01-11T22:16:53.510Z,30.80
2023-01-11T22:19:21.531Z,26.13
2023-01-11T22:21:49.616Z,37.42
2023-01-11T22:24:17.847Z,34.45
2023-01-11T22:26:47.316Z,31.23
2023-01-11T22:29:19.814Z,30.52
2023-01-11T22:31:51.068Z,41.03
2023-01-11T22:34:20.280Z,38.73
2023-01-11T22:36:48.687Z,33.38
2023-01-11T22:39:19.330Z,30.95
2023-01-11T22:41:49.885Z,30.55
2023-01-11T22:44:18.157Z,32.88
2023-01-11T22:46:46.310Z,34.80
2023-01-11T22:49:15.138Z,31.63
2023-01-11T22:51:44.611Z,31.33
2023-01-11T22:54:12.902Z,27.23
2023-01-11T22:56:41.175Z,35.08
2023-01-11T22:59:11.121Z,34.05
2023-01-11T23:01:40.984Z,32.83
2023-01-11T23:04:11.881Z,33.33
2023-01-11T23:06:41.916Z,29.67
2023-01-11T23:09:15.639Z,31.38
2023-01-11T23:12:01.636Z,32.38
2023-01-11T23:14:33.132Z,33.83
2023-01-11T23:17:02.751Z,32.03
2023-01-11T23:19:32.045Z,36.08
2023-01-11T23:22:00.653Z,32.00
2023-01-11T23:24:28.644Z,36.63
2023-01-11T23:26:56.787Z,39.38
2023-01-11T23:29:24.801Z,36.80
2023-01-11T23:31:54.506Z,36.67
2023-01-11T23:34:22.537Z,41.05
2023-01-11T23:36:50.550Z,42.85
2023-01-11T23:39:19.673Z,30.42
2023-01-11T23:42:05.549Z,34.00
2023-01-11T23:44:33.543Z,38.70
2023-01-11T23:47:20.210Z,29.83
2023-01-11T23:49:49.498Z,32.17
2023-01-11T23:52:18.183Z,38.72
2023-01-11T23:54:46.644Z,39.78
2023-01-11T23:57:15.533Z,41.38
2023-01-11T23:59:43.966Z,42.92
